Time,TemperatureF,DewpointF,PressureIn,WindDirection,WindDirectionDegrees,WindSpeedMPH,WindSpeedGustMPH,Humidity,HourlyPrecipIn,Conditions,Clouds,dailyrainin,SoftwareType,DateUTC
2013-05-16 00:01:00,74.0,69.9,29.83,SSE,152,17.3,17.3,87,0.00,RA,,0.00,WeatherDisplay:10.37,2013-05-16 05:01:00,
2013-05-16 00:06:00,74.0,69.9,29.83,SSW,193,17.3,17.3,87,0.00,RA,,0.00,WeatherDisplay:10.37,2013-05-16 05:06:00,
2013-05-16 00:11:00,73.9,69.8,29.83,SSE,160,19.6,19.6,87,0.00,CLR,,0.00,WeatherDisplay:10.37,2013-05-16 05:11:00,
2013-05-16 00:16:00,73.9,69.8,29.83,South,179,20.7,20.7,87,0.00,CLR,,0.00,WeatherDisplay:10.37,2013-05-16 05:16:00,
2013-05-16 00:21:00,73.9,69.8,29.83,South,188,19.6,19.6,87,0.00,CLR,,0.00,WeatherDisplay:10.37,2013-05-16 05:21:00,
2013-05-16 00:26:00,73.9,69.8,29.83,SSE,156,17.3,17.3,87,0.00,CLR,,0.00,WeatherDisplay:10.37,2013-05-16 05:26:00,
2013-05-16 00:31:00,73.9,69.8,29.83,SSE,167,17.3,17.3,87,0.00,CLR,,0.00,WeatherDisplay:10.37,2013-05-16 05:31:00,
2013-05-16 00:36:00,73.9,69.8,29.82,SSE,162,19.6,19.6,87,0.00,CLR,,0.00,WeatherDisplay:10.37,2013-05-16 05:36:00,
2013-05-16 00:41:00,73.8,69.7,29.82,SE,146,26.5,26.5,87,0.00,CLR,,0.00,WeatherDisplay:10.37,2013-05-16 05:41:00,
2013-05-16 00:46:00,73.8,69.7,29.83,South,184,17.3,17.3,87,0.00,CLR,,0.00,WeatherDisplay:10.37,2013-05-16 05:46:00,
2013-05-16 00:51:00,73.8,69.7,29.83,SE,142,19.6,19.6,87,0.00,CLR,,0.00,WeatherDisplay:10.37,2013-05-16 05:51:00,
2013-05-16 00:56:00,73.8,69.7,29.83,SSE,153,16.1,16.1,87,0.00,CLR,,0.00,WeatherDisplay:10.37,2013-05-16 05:56:00,
2013-05-16 01:01:00,73.7,69.6,29.84,SSE,165,18.4,18.4,87,0.00,CLR,,0.00,WeatherDisplay:10.37,2013-05-16 06:01:00,
2013-05-16 01:06:00,73.7,69.6,29.84,SE,136,17.3,17.3,87,0.00,CLR,,0.00,WeatherDisplay:10.37,2013-05-16 06:06:00,
2013-05-16 01:11:00,73.6,69.5,29.84,SSE,152,13.8,13.8,87,0.00,CLR,,0.00,WeatherDisplay:10.37,2013-05-16 06:11:00,
2013-05-16 01:16:00,73.6,69.5,29.84,SSE,162,13.8,13.8,87,0.00,CLR,,0.00,WeatherDisplay:10.37,2013-05-16 06:16:00,
2013-05-16 01:21:00,73.5,69.4,29.84,SSE,156,19.0,19.0,87,0.00,CLR,,0.00,WeatherDisplay:10.37,2013-05-16 06:21:00,
2013-05-16 01:26:00,73.4,69.3,29.83,SSE,148,26.5,26.5,87,0.00,CLR,,0.00,WeatherDisplay:10.37,2013-05-16 06:26:00,
2013-05-16 01:31:00,73.4,69.3,29.83,SSE,150,13.8,13.8,87,0.00,CLR,,0.00,WeatherDisplay:10.37,2013-05-16 06:31:00,
2013-05-16 01:36:00,73.3,69.2,29.83,SSE,167,17.3,17.3,87,0.00,CLR,,0.00,WeatherDisplay:10.37,2013-05-16 06:36:00,
2013-05-16 01:41:00,73.3,69.2,29.82,SSE,148,17.3,17.3,87,0.00,CLR,,0.00,WeatherDisplay:10.37,2013-05-16 06:41:00,
2013-05-16 01:46:00,73.2,69.1,29.83,SSE,156,13.8,13.8,87,0.00,CLR,,0.00,WeatherDisplay:10.37,2013-05-16 06:46:00,
2013-05-16 01:51:00,73.1,69.3,29.83,SSE,165,21.9,21.9,88,0.00,CLR,,0.00,WeatherDisplay:10.37,2013-05-16 06:51:00,
2013-05-16 01:56:00,73.0,69.2,29.83,SSE,150,12.7,12.7,88,0.00,CLR,,0.00,WeatherDisplay:10.37,2013-05-16 06:56:00,
2013-05-16 02:01:00,72.9,69.1,29.83,SSE,162,16.1,16.1,88,0.00,CLR,,0.00,WeatherDisplay:10.37,2013-05-16 07:01:00,
2013-05-16 02:06:00,72.9,69.1,29.83,SSE,154,17.3,17.3,88,0.00,CLR,,0.00,WeatherDisplay:10.37,2013-05-16 07:06:00,
2013-05-16 02:11:00,72.9,69.1,29.82,SSE,154,16.1,16.1,88,0.00,CLR,,0.00,WeatherDisplay:10.37,2013-05-16 07:11:00,
2013-05-16 02:16:00,72.8,69.0,29.82,SSE,163,21.9,21.9,88,0.00,CLR,,0.00,WeatherDisplay:10.37,2013-05-16 07:16:00,
2013-05-16 02:21:00,72.8,69.0,29.81,SSE,153,17.3,17.3,88,0.00,CLR,,0.00,WeatherDisplay:10.37,2013-05-16 07:21:00,
2013-05-16 02:26:00,72.7,68.9,29.81,SSE,162,19.6,19.6,88,0.00,CLR,,0.00,WeatherDisplay:10.37,2013-05-16 07:26:00,
2013-05-16 02:31:00,72.7,68.9,29.81,South,169,19.6,19.6,88,0.00,CLR,,0.00,WeatherDisplay:10.37,2013-05-16 07:31:00,
2013-05-16 02:36:00,72.6,68.8,29.81,SE,135,13.8,13.8,88,0.00,CLR,,0.00,WeatherDisplay:10.37,2013-05-16 07:36:00,
2013-05-16 02:41:00,72.6,68.8,29.82,South,179,16.1,16.1,88,0.00,CLR,,0.00,WeatherDisplay:10.37,2013-05-16 07:41:00,
2013-05-16 02:46:00,72.6,68.8,29.81,SSE,165,17.3,17.3,88,0.00,CLR,,0.00,WeatherDisplay:10.37,2013-05-16 07:46:00,
2013-05-16 02:51:00,72.6,68.8,29.81,SSE,162,17.3,17.3,88,0.00,CLR,,0.00,WeatherDisplay:10.37,2013-05-16 07:51:00,
2013-05-16 02:56:00,72.6,68.8,29.81,SSE,167,17.3,17.3,88,0.00,CLR,,0.00,WeatherDisplay:10.37,2013-05-16 07:56:00,
2013-05-16 03:01:00,72.6,68.8,29.81,South,173,16.1,16.1,88,0.00,CLR,,0.00,WeatherDisplay:10.37,2013-05-16 08:01:00,
2013-05-16 03:06:00,72.5,68.7,29.80,SSW,195,15.0,15.0,88,0.00,CLR,,0.00,WeatherDisplay:10.37,2013-05-16 08:06:00,
2013-05-16 03:11:00,72.6,68.8,29.80,South,183,16.1,16.1,88,0.00,CLR,,0.00,WeatherDisplay:10.37,2013-05-16 08:11:00,
2013-05-16 03:16:00,72.6,68.8,29.80,South,173,15.0,15.0,88,0.00,CLR,,0.00,WeatherDisplay:10.37,2013-05-16 08:16:00,
2013-05-16 03:21:00,72.6,68.8,29.80,South,180,16.1,16.1,88,0.00,CLR,,0.00,WeatherDisplay:10.37,2013-05-16 08:21:00,
2013-05-16 03:26:00,72.6,68.8,29.80,South,179,15.0,15.0,88,0.00,CLR,,0.00,WeatherDisplay:10.37,2013-05-16 08:26:00,
2013-05-16 03:31:00,72.6,68.8,29.81,SE,142,12.7,12.7,88,0.00,CLR,,0.00,WeatherDisplay:10.37,2013-05-16 08:31:00,
2013-05-16 03:36:00,72.7,68.9,29.80,South,174,10.4,11.8,88,0.00,CLR,,0.00,WeatherDisplay:10.37,2013-05-16 08:36:00,
2013-05-16 03:41:00,72.7,68.9,29.80,SSE,165,17.0,17.0,88,0.00,CLR,,0.00,WeatherDisplay:10.37,2013-05-16 08:41:00,
2013-05-16 03:46:00,72.8,69.0,29.80,South,172,12.7,12.7,88,0.00,CLR,,0.00,WeatherDisplay:10.37,2013-05-16 08:46:00,
2013-05-16 03:51:00,72.7,68.9,29.80,SSE,160,11.5,11.5,88,0.00,CLR,,0.00,WeatherDisplay:10.37,2013-05-16 08:51:00,
2013-05-16 03:56:00,72.7,68.9,29.80,South,172,12.7,12.7,88,0.00,CLR,,0.00,WeatherDisplay:10.37,2013-05-16 08:56:00,
2013-05-16 04:01:00,72.7,68.9,29.80,South,173,16.1,16.1,88,0.00,CLR,,0.00,WeatherDisplay:10.37,2013-05-16 09:01:00,
2013-05-16 04:06:00,72.7,68.9,29.80,SE,146,15.0,15.0,88,0.00,CLR,,0.00,WeatherDisplay:10.37,2013-05-16 09:06:00,
2013-05-16 04:11:00,72.7,68.9,29.80,South,190,10.4,10.4,88,0.00,CLR,,0.00,WeatherDisplay:10.37,2013-05-16 09:11:00,
2013-05-16 04:16:00,72.7,68.9,29.80,South,173,12.7,12.7,88,0.00,CLR,,0.00,WeatherDisplay:10.37,2013-05-16 09:16:00,
2013-05-16 04:21:00,72.7,68.9,29.80,SSE,156,13.8,13.8,88,0.00,CLR,,0.00,WeatherDisplay:10.37,2013-05-16 09:21:00,
2013-05-16 04:26:00,72.7,68.9,29.80,SSE,150,11.5,11.5,88,0.00,CLR,,0.00,WeatherDisplay:10.37,2013-05-16 09:26:00,
2013-05-16 04:31:00,72.8,69.0,29.80,South,187,16.1,16.1,88,0.00,CLR,,0.00,WeatherDisplay:10.37,2013-05-16 09:31:00,
2013-05-16 04:36:00,72.8,68.7,29.80,SSE,155,16.1,16.1,87,0.00,CLR,,0.00,WeatherDisplay:10.37,2013-05-16 09:36:00,
2013-05-16 04:41:00,72.7,68.6,29.81,SSW,211,11.5,11.5,87,0.00,CLR,,0.00,WeatherDisplay:10.37,2013-05-16 09:41:00,
2013-05-16 04:46:00,72.7,68.6,29.81,SSE,154,12.7,12.7,87,0.00,CLR,,0.00,WeatherDisplay:10.37,2013-05-16 09:46:00,
2013-05-16 04:51:00,72.7,68.6,29.81,South,191,8.1,8.1,87,0.00,CLR,,0.00,WeatherDisplay:10.37,2013-05-16 09:51:00,
2013-05-16 04:56:00,72.7,68.6,29.82,South,181,11.5,11.5,87,0.00,CLR,,0.00,WeatherDisplay:10.37,2013-05-16 09:56:00,
2013-05-16 05:01:00,72.7,68.6,29.82,SSE,165,11.5,11.5,87,0.00,CLR,,0.00,WeatherDisplay:10.37,2013-05-16 10:01:00,
2013-05-16 05:06:00,72.7,68.6,29.82,SE,145,5.8,5.8,87,0.00,CLR,,0.00,WeatherDisplay:10.37,2013-05-16 10:06:00,
2013-05-16 05:11:00,72.7,68.6,29.83,SE,142,3.5,3.5,87,0.00,CLR,,0.00,WeatherDisplay:10.37,2013-05-16 10:11:00,
2013-05-16 05:16:00,72.7,68.6,29.83,SE,146,4.0,4.0,87,0.00,CLR,,0.00,WeatherDisplay:10.37,2013-05-16 10:16:00,
2013-05-16 05:21:00,72.7,68.6,29.83,SE,136,3.5,3.9,87,0.00,CLR,,0.00,WeatherDisplay:10.37,2013-05-16 10:21:00,
2013-05-16 05:26:00,72.6,68.5,29.82,ESE,102,4.6,4.6,87,0.00,CLR,,0.00,WeatherDisplay:10.37,2013-05-16 10:26:00,
2013-05-16 05:31:00,72.6,68.5,29.82,SSE,150,9.2,9.2,87,0.00,CLR,,0.00,WeatherDisplay:10.37,2013-05-16 10:31:00,
2013-05-16 05:36:00,72.6,68.5,29.82,SE,129,5.8,5.8,87,0.00,CLR,,0.00,WeatherDisplay:10.37,2013-05-16 10:36:00,
2013-05-16 05:41:00,72.5,68.4,29.82,SE,139,8.0,8.0,87,0.00,CLR,,0.00,WeatherDisplay:10.37,2013-05-16 10:41:00,
2013-05-16 05:46:00,72.4,68.3,29.82,SSE,150,5.8,5.8,87,0.00,CLR,,0.00,WeatherDisplay:10.37,2013-05-16 10:46:00,
2013-05-16 05:51:00,72.4,68.3,29.82,SE,141,5.8,5.9,87,0.00,CLR,,0.00,WeatherDisplay:10.37,2013-05-16 10:51:00,
2013-05-16 05:56:00,72.4,68.3,29.82,ESE,103,8.1,8.1,87,0.00,CLR,,0.00,WeatherDisplay:10.37,2013-05-16 10:56:00,
2013-05-16 06:01:00,72.4,68.3,29.82,SE,134,4.6,5.5,87,0.00,CLR,,0.00,WeatherDisplay:10.37,2013-05-16 11:01:00,
2013-05-16 06:06:00,72.4,68.3,29.82,SE,128,7.0,7.0,87,0.00,CLR,,0.00,WeatherDisplay:10.37,2013-05-16 11:06:00,
2013-05-16 06:11:00,72.3,68.2,29.82,SSE,149,6.9,6.9,87,0.00,CLR,,0.00,WeatherDisplay:10.37,2013-05-16 11:11:00,
2013-05-16 06:16:00,72.2,68.1,29.82,SE,133,4.6,5.5,87,0.00,CLR,,0.00,WeatherDisplay:10.37,2013-05-16 11:16:00,
2013-05-16 06:21:00,72.2,68.1,29.82,SE,139,9.2,9.2,87,0.00,CLR,,0.00,WeatherDisplay:10.37,2013-05-16 11:21:00,
2013-05-16 06:26:00,72.2,68.1,29.82,ESE,121,11.5,11.5,87,0.00,CLR,,0.00,WeatherDisplay:10.37,2013-05-16 11:26:00,
2013-05-16 06:31:00,72.2,68.1,29.82,SE,129,8.1,8.1,87,0.00,CLR,,0.00,WeatherDisplay:10.37,2013-05-16 11:31:00,
2013-05-16 06:36:00,72.1,68.0,29.82,SE,145,6.9,6.9,87,0.00,CLR,,0.00,WeatherDisplay:10.37,2013-05-16 11:36:00,
2013-05-16 06:41:00,72.0,68.2,29.82,SE,144,6.9,6.9,88,0.00,CLR,,0.00,WeatherDisplay:10.37,2013-05-16 11:41:00,
2013-05-16 06:46:00,71.9,68.2,29.83,SSE,147,8.1,8.1,88,0.00,CLR,,0.00,WeatherDisplay:10.37,2013-05-16 11:46:00,
2013-05-16 06:51:00,71.9,68.2,29.82,SE,145,9.2,9.2,88,0.00,CLR,,0.00,WeatherDisplay:10.37,2013-05-16 11:51:00,
2013-05-16 06:56:00,71.8,68.1,29.82,SE,125,8.1,8.1,88,0.00,CLR,,0.00,WeatherDisplay:10.37,2013-05-16 11:56:00,
2013-05-16 07:01:00,71.8,68.1,29.82,SE,129,8.1,8.1,88,0.00,CLR,,0.00,WeatherDisplay:10.37,2013-05-16 12:01:00,
2013-05-16 07:06:00,71.7,68.0,29.83,SE,125,9.2,9.2,88,0.00,CLR,,0.00,WeatherDisplay:10.37,2013-05-16 12:06:00,
2013-05-16 07:11:00,71.7,68.0,29.83,SE,125,6.9,6.9,88,0.00,CLR,,0.00,WeatherDisplay:10.37,2013-05-16 12:11:00,
2013-05-16 07:16:00,71.6,68.2,29.83,SE,132,6.9,6.9,89,0.00,CLR,,0.00,WeatherDisplay:10.37,2013-05-16 12:16:00,
2013-05-16 07:21:00,71.6,68.2,29.83,SE,129,9.0,9.0,89,0.00,CLR,,0.00,WeatherDisplay:10.37,2013-05-16 12:21:00,
2013-05-16 07:26:00,71.6,68.2,29.83,SE,134,10.4,10.4,89,0.00,CLR,,0.00,WeatherDisplay:10.37,2013-05-16 12:26:00,
2013-05-16 07:31:00,71.6,68.2,29.82,SSE,153,12.7,12.7,89,0.00,CLR,,0.00,WeatherDisplay:10.37,2013-05-16 12:31:00,
2013-05-16 07:36:00,71.7,68.3,29.83,SSE,155,9.0,9.0,89,0.00,CLR,,0.00,WeatherDisplay:10.37,2013-05-16 12:36:00,
2013-05-16 07:41:00,71.8,68.4,29.82,ESE,114,11.5,11.5,89,0.00,CLR,,0.00,WeatherDisplay:10.37,2013-05-16 12:41:00,
2013-05-16 07:46:00,71.8,68.1,29.82,ESE,122,9.2,9.2,88,0.00,CLR,,0.00,WeatherDisplay:10.37,2013-05-16 12:46:00,
2013-05-16 07:51:00,71.8,68.1,29.82,SE,138,12.0,12.0,88,0.00,CLR,,0.00,WeatherDisplay:10.37,2013-05-16 12:51:00,
2013-05-16 07:56:00,71.8,68.4,29.83,SE,145,11.5,11.5,89,0.00,CLR,,0.00,WeatherDisplay:10.37,2013-05-16 12:56:00,
2013-05-16 08:01:00,71.8,68.4,29.82,SE,127,9.2,9.2,89,0.00,CLR,,0.00,WeatherDisplay:10.37,2013-05-16 13:01:00,
2013-05-16 08:06:00,71.9,68.5,29.82,East,91,9.2,9.2,89,0.00,CLR,,0.00,WeatherDisplay:10.37,2013-05-16 13:06:00,
2013-05-16 08:11:00,72.0,68.6,29.82,SSE,157,8.1,8.1,89,0.00,CLR,,0.00,WeatherDisplay:10.37,2013-05-16 13:11:00,
2013-05-16 08:16:00,72.1,68.3,29.82,ESE,113,9.2,9.2,88,0.00,CLR,,0.00,WeatherDisplay:10.37,2013-05-16 13:16:00,
2013-05-16 08:21:00,72.2,68.4,29.82,ESE,120,17.3,17.3,88,0.00,CLR,,0.00,WeatherDisplay:10.37,2013-05-16 13:21:00,
2013-05-16 08:26:00,72.2,68.4,29.82,SSE,150,11.5,11.5,88,0.00,CLR,,0.00,WeatherDisplay:10.37,2013-05-16 13:26:00,
2013-05-16 08:31:00,72.3,68.2,29.82,SE,129,12.7,12.7,87,0.00,CLR,,0.00,WeatherDisplay:10.37,2013-05-16 13:31:00,
2013-05-16 08:36:00,72.4,68.3,29.82,SSE,150,15.0,15.0,87,0.00,CLR,,0.00,WeatherDisplay:10.37,2013-05-16 13:36:00,
2013-05-16 08:41:00,72.4,68.3,29.82,ESE,121,10.4,10.4,87,0.00,CLR,,0.00,WeatherDisplay:10.37,2013-05-16 13:41:00,
2013-05-16 08:46:00,72.6,68.5,29.83,SE,141,11.5,11.5,87,0.00,CLR,,0.00,WeatherDisplay:10.37,2013-05-16 13:46:00,
2013-05-16 08:51:00,72.6,68.5,29.83,SSE,153,10.4,10.4,87,0.00,CLR,,0.00,WeatherDisplay:10.37,2013-05-16 13:51:00,
2013-05-16 08:56:00,72.6,68.5,29.83,SSE,156,15.0,15.0,87,0.00,CLR,,0.00,WeatherDisplay:10.37,2013-05-16 13:56:00,
2013-05-16 09:01:00,72.7,68.6,29.83,SE,133,11.5,11.5,87,0.00,CLR,,0.00,WeatherDisplay:10.37,2013-05-16 14:01:00,
2013-05-16 09:06:00,72.8,68.7,29.83,SSE,156,10.4,10.4,87,0.00,CLR,,0.00,WeatherDisplay:10.37,2013-05-16 14:06:00,
2013-05-16 09:11:00,72.9,68.5,29.82,SE,145,13.8,13.8,86,0.00,CLR,,0.00,WeatherDisplay:10.37,2013-05-16 14:11:00,
2013-05-16 09:16:00,73.1,68.7,29.82,SE,136,11.5,11.5,86,0.00,CLR,,0.00,WeatherDisplay:10.37,2013-05-16 14:16:00,
2013-05-16 09:21:00,73.3,68.9,29.83,SSE,166,11.5,11.5,86,0.00,CLR,,0.00,WeatherDisplay:10.37,2013-05-16 14:21:00,
2013-05-16 09:26:00,73.5,68.7,29.82,SSE,153,13.8,13.8,85,0.00,CLR,,0.00,WeatherDisplay:10.37,2013-05-16 14:26:00,
2013-05-16 09:31:00,73.6,68.8,29.82,SSE,153,13.8,13.8,85,0.00,CLR,,0.00,WeatherDisplay:10.37,2013-05-16 14:31:00,
2013-05-16 09:36:00,73.8,69.0,29.82,SSE,154,12.7,12.7,85,0.00,CLR,,0.00,WeatherDisplay:10.37,2013-05-16 14:36:00,
2013-05-16 09:41:00,74.1,69.3,29.82,SSE,164,11.5,11.5,85,0.00,CLR,,0.00,WeatherDisplay:10.37,2013-05-16 14:41:00,
2013-05-16 09:46:00,74.2,69.1,29.82,SSE,153,16.1,16.1,84,0.00,CLR,,0.00,WeatherDisplay:10.37,2013-05-16 14:46:00,
2013-05-16 09:51:00,74.4,69.2,29.82,South,180,12.7,12.7,84,0.00,CLR,,0.00,WeatherDisplay:10.37,2013-05-16 14:51:00,
2013-05-16 09:56:00,74.6,69.4,29.82,SSE,159,12.7,12.7,84,0.00,CLR,,0.00,WeatherDisplay:10.37,2013-05-16 14:56:00,
2013-05-16 10:01:00,74.8,69.3,29.82,SE,127,13.8,13.8,83,0.00,CLR,,0.00,WeatherDisplay:10.37,2013-05-16 15:01:00,
2013-05-16 10:06:00,75.0,69.5,29.82,SE,146,13.8,13.8,83,0.00,CLR,,0.00,WeatherDisplay:10.37,2013-05-16 15:06:00,
2013-05-16 10:11:00,75.1,69.2,29.82,SSE,155,11.5,12.4,82,0.00,CLR,,0.00,WeatherDisplay:10.37,2013-05-16 15:11:00,
2013-05-16 10:16:00,75.2,69.3,29.82,SSE,153,15.0,15.0,82,0.00,CLR,,0.00,WeatherDisplay:10.37,2013-05-16 15:16:00,
2013-05-16 10:21:00,75.5,69.3,29.82,SSE,156,20.7,20.7,81,0.00,CLR,,0.00,WeatherDisplay:10.37,2013-05-16 15:21:00,
2013-05-16 10:26:00,75.8,69.6,29.82,South,169,18.4,18.4,81,0.00,CLR,,0.00,WeatherDisplay:10.37,2013-05-16 15:26:00,
2013-05-16 10:31:00,75.9,69.6,29.82,SSW,210,12.7,12.7,81,0.00,CLR,,0.00,WeatherDisplay:10.37,2013-05-16 15:31:00,
2013-05-16 10:36:00,76.4,70.1,29.82,SSE,164,16.1,16.1,81,0.00,CLR,,0.00,WeatherDisplay:10.37,2013-05-16 15:36:00,
2013-05-16 10:41:00,76.6,69.6,29.82,SSE,159,17.3,17.3,79,0.00,CLR,,0.00,WeatherDisplay:10.37,2013-05-16 15:41:00,
2013-05-16 10:46:00,76.6,70.0,29.82,SE,145,12.7,12.7,80,0.00,CLR,,0.00,WeatherDisplay:10.37,2013-05-16 15:46:00,
2013-05-16 10:51:00,77.0,70.0,29.82,SE,136,13.8,13.8,79,0.00,CLR,,0.00,WeatherDisplay:10.37,2013-05-16 15:51:00,
2013-05-16 10:56:00,77.4,70.4,29.81,South,191,12.7,12.7,79,0.00,CLR,,0.00,WeatherDisplay:10.37,2013-05-16 15:56:00,
2013-05-16 11:01:00,77.9,70.9,29.81,South,184,13.8,13.8,79,0.00,CLR,,0.00,WeatherDisplay:10.37,2013-05-16 16:01:00,
2013-05-16 11:06:00,78.1,70.3,29.81,SSE,153,16.1,16.1,77,0.00,CLR,,0.00,WeatherDisplay:10.37,2013-05-16 16:06:00,
2013-05-16 11:12:00,78.0,70.2,29.81,SSE,166,13.8,13.8,77,0.00,CLR,,0.00,WeatherDisplay:10.37,2013-05-16 16:12:00,
2013-05-16 11:17:00,78.2,70.4,29.81,South,174,10.0,10.0,77,0.00,CLR,,0.00,WeatherDisplay:10.37,2013-05-16 16:17:00,
2013-05-16 11:22:00,78.9,71.1,29.81,South,169,16.1,16.1,77,0.00,CLR,,0.00,WeatherDisplay:10.37,2013-05-16 16:22:00,
2013-05-16 11:27:00,79.6,71.0,29.81,ESE,116,19.6,19.6,75,0.00,CLR,,0.00,WeatherDisplay:10.37,2013-05-16 16:27:00,
2013-05-16 11:32:00,79.8,70.8,29.80,South,181,18.4,18.4,74,0.00,CLR,,0.00,WeatherDisplay:10.37,2013-05-16 16:32:00,
2013-05-16 11:37:00,80.1,71.1,29.80,South,180,13.8,13.8,74,0.00,CLR,,0.00,WeatherDisplay:10.37,2013-05-16 16:37:00,
2013-05-16 11:42:00,80.3,71.3,29.80,South,176,13.8,13.8,74,0.00,CLR,,0.00,WeatherDisplay:10.37,2013-05-16 16:42:00,
2013-05-16 11:47:00,80.7,71.2,29.80,SE,127,19.6,19.6,73,0.00,CLR,,0.00,WeatherDisplay:10.37,2013-05-16 16:47:00,
2013-05-16 11:52:00,80.3,70.9,29.80,SSW,193,16.1,16.1,73,0.00,CLR,,0.00,WeatherDisplay:10.37,2013-05-16 16:52:00,
2013-05-16 11:57:00,81.0,71.5,29.80,SSE,150,16.1,16.1,73,0.00,CLR,,0.00,WeatherDisplay:10.37,2013-05-16 16:57:00,
2013-05-16 12:02:00,81.4,71.5,29.80,SSE,165,19.6,19.6,72,0.00,CLR,,0.00,WeatherDisplay:10.37,2013-05-16 17:02:00,
2013-05-16 12:07:00,82.1,71.8,29.80,SSE,148,18.4,18.4,71,0.00,CLR,,0.00,WeatherDisplay:10.37,2013-05-16 17:07:00,
2013-05-16 12:12:00,82.5,72.6,29.79,South,190,15.0,15.0,72,0.00,CLR,,0.00,WeatherDisplay:10.37,2013-05-16 17:12:00,
2013-05-16 12:17:00,83.0,71.8,29.79,South,172,13.8,13.8,69,0.00,CLR,,0.00,WeatherDisplay:10.37,2013-05-16 17:17:00,
2013-05-16 12:22:00,83.4,71.7,29.79,SSE,150,17.3,17.3,68,0.00,CLR,,0.00,WeatherDisplay:10.37,2013-05-16 17:22:00,
2013-05-16 12:27:00,83.3,72.1,29.79,SSE,159,15.0,15.0,69,0.00,CLR,,0.00,WeatherDisplay:10.37,2013-05-16 17:27:00,
2013-05-16 12:32:00,83.1,71.4,29.79,SSE,154,17.3,17.3,68,0.00,CLR,,0.00,WeatherDisplay:10.37,2013-05-16 17:32:00,
2013-05-16 12:37:00,83.2,72.0,29.78,South,169,17.3,17.3,69,0.00,CLR,,0.00,WeatherDisplay:10.37,2013-05-16 17:37:00,
2013-05-16 12:42:00,83.8,72.5,29.79,SE,143,19.6,19.6,69,0.00,CLR,,0.00,WeatherDisplay:10.37,2013-05-16 17:42:00,
2013-05-16 12:47:00,84.0,71.9,29.78,SSE,165,16.1,16.1,67,0.00,CLR,,0.00,WeatherDisplay:10.37,2013-05-16 17:47:00,
2013-05-16 12:52:00,84.2,72.0,29.78,SSW,210,12.7,12.7,67,0.00,CLR,,0.00,WeatherDisplay:10.37,2013-05-16 17:52:00,
2013-05-16 12:57:00,84.5,72.8,29.78,South,183,19.6,19.6,68,0.00,CLR,,0.00,WeatherDisplay:10.37,2013-05-16 17:57:00,
2013-05-16 13:02:00,84.5,72.3,29.77,South,170,16.1,16.1,67,0.00,CLR,,0.00,WeatherDisplay:10.37,2013-05-16 18:02:00,
2013-05-16 13:07:00,84.8,72.6,29.77,South,186,18.4,18.4,67,0.00,CLR,,0.00,WeatherDisplay:10.37,2013-05-16 18:07:00,
2013-05-16 13:12:00,85.1,72.0,29.77,SW,217,18.4,18.4,65,0.00,CLR,,0.00,WeatherDisplay:10.37,2013-05-16 18:12:00,
2013-05-16 13:17:00,85.2,72.6,29.77,South,181,17.3,17.3,66,0.00,CLR,,0.00,WeatherDisplay:10.37,2013-05-16 18:17:00,
2013-05-16 13:22:00,86.3,73.1,29.76,SSE,162,13.8,13.8,65,0.00,CLR,,0.00,WeatherDisplay:10.37,2013-05-16 18:22:00,
2013-05-16 13:27:00,86.3,72.7,29.76,SSE,156,20.7,20.7,64,0.00,CLR,,0.00,WeatherDisplay:10.37,2013-05-16 18:27:00,
2013-05-16 13:32:00,86.4,72.3,29.76,SW,221,19.6,19.6,63,0.00,CLR,,0.00,WeatherDisplay:10.37,2013-05-16 18:32:00,
2013-05-16 13:37:00,86.6,73.0,29.76,SSE,148,17.3,17.3,64,0.00,CLR,,0.00,WeatherDisplay:10.37,2013-05-16 18:37:00,
2013-05-16 13:42:00,86.6,72.5,29.76,SSE,160,18.4,18.4,63,0.00,CLR,,0.00,WeatherDisplay:10.37,2013-05-16 18:42:00,
2013-05-16 13:47:00,87.1,71.5,29.76,SSE,162,19.6,19.6,60,0.00,CLR,,0.00,WeatherDisplay:10.37,2013-05-16 18:47:00,
2013-05-16 13:52:00,87.0,72.4,29.76,South,176,18.4,18.4,62,0.00,CLR,,0.00,WeatherDisplay:10.37,2013-05-16 18:52:00,
2013-05-16 13:57:00,87.4,72.3,29.76,SSW,207,16.1,16.1,61,0.00,CLR,,0.00,WeatherDisplay:10.37,2013-05-16 18:57:00,
2013-05-16 14:02:00,87.6,72.5,29.75,South,191,18.4,18.4,61,0.00,CLR,,0.00,WeatherDisplay:10.37,2013-05-16 19:02:00,
2013-05-16 14:07:00,87.7,72.1,29.75,SSE,148,19.6,19.6,60,0.00,CLR,,0.00,WeatherDisplay:10.37,2013-05-16 19:07:00,
2013-05-16 14:12:00,87.9,72.3,29.75,SSW,204,18.4,18.4,60,0.00,CLR,,0.00,WeatherDisplay:10.37,2013-05-16 19:12:00,
2013-05-16 14:17:00,88.1,72.5,29.74,SSW,192,13.8,13.8,60,0.00,CLR,,0.00,WeatherDisplay:10.37,2013-05-16 19:17:00,
2013-05-16 14:22:00,88.7,72.0,29.75,SSE,156,19.6,19.6,58,0.00,CLR,,0.00,WeatherDisplay:10.37,2013-05-16 19:22:00,
2013-05-16 14:27:00,88.9,72.2,29.74,SSE,148,18.4,18.4,58,0.00,CLR,,0.00,WeatherDisplay:10.37,2013-05-16 19:27:00,
2013-05-16 14:32:00,89.2,72.0,29.74,SSW,201,17.3,17.3,57,0.00,CLR,,0.00,WeatherDisplay:10.37,2013-05-16 19:32:00,
2013-05-16 14:37:00,89.8,72.0,29.74,SW,214,19.6,19.6,56,0.00,CLR,,0.00,WeatherDisplay:10.37,2013-05-16 19:37:00,
2013-05-16 14:42:00,89.6,71.8,29.74,SSW,208,13.8,13.8,56,0.00,CLR,,0.00,WeatherDisplay:10.37,2013-05-16 19:42:00,
2013-05-16 14:47:00,89.6,71.8,29.74,SSW,211,15.0,15.0,56,0.00,CLR,,0.00,WeatherDisplay:10.37,2013-05-16 19:47:00,
2013-05-16 14:52:00,90.1,72.3,29.74,SW,231,18.4,18.4,56,0.00,CLR,,0.00,WeatherDisplay:10.37,2013-05-16 19:52:00,
2013-05-16 14:57:00,90.2,72.4,29.74,South,169,19.6,19.6,56,0.00,CLR,,0.00,WeatherDisplay:10.37,2013-05-16 19:57:00,
2013-05-16 15:02:00,90.4,73.1,29.74,South,183,10.4,10.4,57,0.00,CLR,,0.00,WeatherDisplay:10.37,2013-05-16 20:02:00,
2013-05-16 15:07:00,90.9,72.0,29.74,SSE,149,16.1,16.1,54,0.00,CLR,,0.00,WeatherDisplay:10.37,2013-05-16 20:07:00,
2013-05-16 15:12:00,90.6,71.7,29.73,SSW,212,12.7,12.7,54,0.00,CLR,,0.00,WeatherDisplay:10.37,2013-05-16 20:12:00,
2013-05-16 15:17:00,90.8,71.9,29.73,SSW,210,13.8,13.8,54,0.00,CLR,,0.00,WeatherDisplay:10.37,2013-05-16 20:17:00,
2013-05-16 15:22:00,90.8,71.9,29.73,SSE,159,15.0,15.0,54,0.00,CLR,,0.00,WeatherDisplay:10.37,2013-05-16 20:22:00,
2013-05-16 15:27:00,91.3,71.2,29.73,SW,224,11.5,11.5,52,0.00,CLR,,0.00,WeatherDisplay:10.37,2013-05-16 20:27:00,
2013-05-16 15:32:00,91.2,71.7,29.73,SSE,150,15.0,15.0,53,0.00,CLR,,0.00,WeatherDisplay:10.37,2013-05-16 20:32:00,
2013-05-16 15:37:00,91.3,71.8,29.72,SSW,210,17.3,17.3,53,0.00,CLR,,0.00,WeatherDisplay:10.37,2013-05-16 20:37:00,
2013-05-16 15:42:00,91.1,71.0,29.72,SSW,206,15.0,15.0,52,0.00,CLR,,0.00,WeatherDisplay:10.37,2013-05-16 20:42:00,
2013-05-16 15:47:00,91.5,72.5,29.72,SSW,202,17.3,17.3,54,0.00,CLR,,0.00,WeatherDisplay:10.37,2013-05-16 20:47:00,
2013-05-16 15:52:00,92.1,72.5,29.71,South,191,9.2,9.2,53,0.00,CLR,,0.00,WeatherDisplay:10.37,2013-05-16 20:52:00,
2013-05-16 15:57:00,92.3,72.1,29.72,South,179,18.4,18.4,52,0.00,CLR,,0.00,WeatherDisplay:10.37,2013-05-16 20:57:00,
2013-05-16 16:02:00,92.1,71.9,29.71,SSE,165,11.5,11.5,52,0.00,CLR,,0.00,WeatherDisplay:10.37,2013-05-16 21:02:00,
2013-05-16 16:07:00,92.6,72.4,29.71,SSE,165,16.1,16.1,52,0.00,CLR,,0.00,WeatherDisplay:10.37,2013-05-16 21:07:00,
2013-05-16 16:12:00,92.8,72.0,29.71,South,169,11.5,11.5,51,0.00,CLR,,0.00,WeatherDisplay:10.37,2013-05-16 21:12:00,
2013-05-16 16:17:00,93.4,72.0,29.70,SSW,210,16.1,16.1,50,0.00,CLR,,0.00,WeatherDisplay:10.37,2013-05-16 21:17:00,
2013-05-16 16:22:00,93.1,72.3,29.70,South,172,13.8,13.8,51,0.00,CLR,,0.00,WeatherDisplay:10.37,2013-05-16 21:22:00,
2013-05-16 16:27:00,92.9,71.5,29.70,South,178,12.7,12.7,50,0.00,CLR,,0.00,WeatherDisplay:10.37,2013-05-16 21:27:00,
2013-05-16 16:32:00,92.7,71.9,29.70,South,174,12.7,12.7,51,0.00,CLR,,0.00,WeatherDisplay:10.37,2013-05-16 21:32:00,
2013-05-16 16:37:00,92.9,72.1,29.70,South,172,11.5,11.5,51,0.00,CLR,,0.00,WeatherDisplay:10.37,2013-05-16 21:37:00,
2013-05-16 16:42:00,92.9,72.7,29.70,SSE,163,12.7,12.7,52,0.00,CLR,,0.00,WeatherDisplay:10.37,2013-05-16 21:42:00,
2013-05-16 16:47:00,93.5,72.1,29.69,SSE,166,12.7,12.7,50,0.00,CLR,,0.00,WeatherDisplay:10.37,2013-05-16 21:47:00,
2013-05-16 16:52:00,93.5,71.5,29.69,South,173,16.1,16.1,49,0.00,CLR,,0.00,WeatherDisplay:10.37,2013-05-16 21:52:00,
2013-05-16 16:57:00,93.6,71.6,29.69,SSE,151,16.1,16.1,49,0.00,CLR,,0.00,WeatherDisplay:10.37,2013-05-16 21:57:00,
2013-05-16 17:02:00,93.4,72.0,29.69,SSW,207,12.7,12.7,50,0.00,CLR,,0.00,WeatherDisplay:10.37,2013-05-16 22:02:00,
2013-05-16 17:07:00,93.7,71.7,29.69,SE,143,17.3,17.3,49,0.00,CLR,,0.00,WeatherDisplay:10.37,2013-05-16 22:07:00,
2013-05-16 17:12:00,93.7,72.3,29.68,SSE,151,11.5,11.5,50,0.00,CLR,,0.00,WeatherDisplay:10.37,2013-05-16 22:12:00,
2013-05-16 17:17:00,93.8,71.7,29.68,South,176,18.4,18.4,49,0.00,CLR,,0.00,WeatherDisplay:10.37,2013-05-16 22:17:00,
2013-05-16 17:22:00,93.7,72.3,29.68,SSE,154,10.4,10.4,50,0.00,CLR,,0.00,WeatherDisplay:10.37,2013-05-16 22:22:00,
2013-05-16 17:27:00,94.0,71.9,29.68,SSE,165,10.4,10.4,49,0.00,CLR,,0.00,WeatherDisplay:10.37,2013-05-16 22:27:00,
2013-05-16 17:32:00,94.2,72.7,29.68,South,169,13.0,13.0,50,0.00,CLR,,0.00,WeatherDisplay:10.37,2013-05-16 22:32:00,
2013-05-16 17:37:00,94.1,72.0,29.68,SE,143,12.7,12.7,49,0.00,CLR,,0.00,WeatherDisplay:10.37,2013-05-16 22:37:00,
2013-05-16 17:42:00,94.3,72.2,29.68,SE,144,9.2,9.2,49,0.00,CLR,,0.00,WeatherDisplay:10.37,2013-05-16 22:42:00,
2013-05-16 17:47:00,94.6,72.5,29.68,South,169,11.5,11.5,49,0.00,CLR,,0.00,WeatherDisplay:10.37,2013-05-16 22:47:00,
2013-05-16 17:52:00,94.7,72.0,29.67,ESE,109,15.0,15.0,48,0.00,CLR,,0.00,WeatherDisplay:10.37,2013-05-16 22:52:00,
2013-05-16 17:57:00,94.4,71.1,29.67,ESE,103,15.0,15.0,47,0.00,CLR,,0.00,WeatherDisplay:10.37,2013-05-16 22:57:00,
2013-05-16 18:02:00,94.1,71.4,29.67,ESE,117,12.7,12.7,48,0.00,CLR,,0.00,WeatherDisplay:10.37,2013-05-16 23:02:00,
2013-05-16 18:07:00,92.9,74.9,29.67,ESE,120,18.4,18.4,56,0.00,CLR,,0.00,WeatherDisplay:10.37,2013-05-16 23:07:00,
2013-05-16 18:12:00,91.7,75.3,29.67,East,91,19.6,19.6,59,0.00,CLR,,0.00,WeatherDisplay:10.37,2013-05-16 23:12:00,
2013-05-16 18:17:00,91.1,75.3,29.68,SE,141,19.6,19.6,60,0.00,CLR,,0.00,WeatherDisplay:10.37,2013-05-16 23:17:00,
2013-05-16 18:22:00,90.7,75.4,29.68,SE,133,20.7,20.7,61,0.00,CLR,,0.00,WeatherDisplay:10.37,2013-05-16 23:22:00,
2013-05-16 18:27:00,90.3,75.5,29.68,ESE,119,13.8,13.8,62,0.00,CLR,,0.00,WeatherDisplay:10.37,2013-05-16 23:27:00,
2013-05-16 18:32:00,90.2,75.4,29.68,ESE,113,15.0,15.0,62,0.00,CLR,,0.00,WeatherDisplay:10.37,2013-05-16 23:32:00,
2013-05-16 18:37:00,89.9,75.6,29.68,SE,127,13.8,13.8,63,0.00,CLR,,0.00,WeatherDisplay:10.37,2013-05-16 23:37:00,
2013-05-16 18:42:00,89.5,75.7,29.68,ESE,111,10.4,10.4,64,0.00,CLR,,0.00,WeatherDisplay:10.37,2013-05-16 23:42:00,
2013-05-16 18:47:00,89.3,75.5,29.68,SE,135,17.3,17.3,64,0.00,CLR,,0.00,WeatherDisplay:10.37,2013-05-16 23:47:00,
2013-05-16 18:52:00,88.9,75.1,29.68,SE,127,21.9,21.9,64,0.00,CLR,,0.00,WeatherDisplay:10.37,2013-05-16 23:52:00,
2013-05-16 18:57:00,88.3,75.5,29.68,SE,126,17.3,17.3,66,0.00,CLR,,0.00,WeatherDisplay:10.37,2013-05-16 23:57:00,
2013-05-16 19:02:00,87.9,75.1,29.68,ESE,108,20.7,20.7,66,0.00,CLR,,0.00,WeatherDisplay:10.37,2013-05-17 00:02:00,
2013-05-16 19:07:00,87.7,75.4,29.68,SE,135,12.7,12.7,67,0.00,CLR,,0.00,WeatherDisplay:10.37,2013-05-17 00:07:00,
2013-05-16 19:12:00,87.4,75.5,29.69,SE,127,19.6,19.6,68,0.00,CLR,,0.00,WeatherDisplay:10.37,2013-05-17 00:12:00,
2013-05-16 19:31:00,86.1,75.2,29.69,SE,129,18.4,18.4,70,0.00,CLR,,0.00,WeatherDisplay:10.37,2013-05-17 00:31:00,
2013-05-16 19:36:00,85.7,75.2,29.69,SE,134,12.0,12.0,71,0.00,CLR,,0.00,WeatherDisplay:10.37,2013-05-17 00:36:00,
2013-05-16 19:41:00,85.4,74.9,29.69,ESE,119,12.7,12.7,71,0.00,CLR,,0.00,WeatherDisplay:10.37,2013-05-17 00:41:00,
2013-05-16 19:46:00,85.1,75.1,29.69,ESE,109,15.0,15.0,72,0.00,CLR,,0.00,WeatherDisplay:10.37,2013-05-17 00:46:00,
2013-05-16 19:51:00,84.6,75.0,29.70,SE,129,15.0,15.0,73,0.00,CLR,,0.00,WeatherDisplay:10.37,2013-05-17 00:51:00,
2013-05-16 19:56:00,84.1,74.9,29.70,ESE,123,16.1,16.1,74,0.00,CLR,,0.00,WeatherDisplay:10.37,2013-05-17 00:56:00,
2013-05-16 20:01:00,83.7,74.9,29.70,ESE,118,14.0,14.0,75,0.00,CLR,,0.00,WeatherDisplay:10.37,2013-05-17 01:01:00,
2013-05-16 20:06:00,83.3,74.9,29.70,SE,134,11.5,11.5,76,0.00,CLR,,0.00,WeatherDisplay:10.37,2013-05-17 01:06:00,
2013-05-16 20:11:00,82.9,74.6,29.70,SE,127,16.1,16.1,76,0.00,CLR,,0.00,WeatherDisplay:10.37,2013-05-17 01:11:00,
2013-05-16 20:16:00,82.5,74.6,29.71,ESE,121,19.6,19.6,77,0.00,CLR,,0.00,WeatherDisplay:10.37,2013-05-17 01:16:00,
2013-05-16 20:21:00,82.1,74.6,29.71,SE,136,15.0,15.0,78,0.00,CLR,,0.00,WeatherDisplay:10.37,2013-05-17 01:21:00,
2013-05-16 20:26:00,81.6,74.5,29.71,SSE,152,17.3,17.3,79,0.00,CLR,,0.00,WeatherDisplay:10.37,2013-05-17 01:26:00,
2013-05-16 20:31:00,81.3,74.5,29.71,SE,139,13.8,13.8,80,0.00,CLR,,0.00,WeatherDisplay:10.37,2013-05-17 01:31:00,
2013-05-16 20:36:00,81.0,74.2,29.72,SE,128,16.1,16.1,80,0.00,CLR,,0.00,WeatherDisplay:10.37,2013-05-17 01:36:00,
2013-05-16 20:41:00,80.7,74.3,29.72,East,101,12.0,12.0,81,0.00,CLR,,0.00,WeatherDisplay:10.37,2013-05-17 01:41:00,
2013-05-16 20:46:00,80.5,74.1,29.72,SE,132,12.7,12.7,81,0.00,CLR,,0.00,WeatherDisplay:10.37,2013-05-17 01:46:00,
2013-05-16 20:51:00,80.2,74.2,29.72,ESE,123,16.1,16.1,82,0.00,CLR,,0.00,WeatherDisplay:10.37,2013-05-17 01:51:00,
2013-05-16 20:56:00,80.0,74.0,29.72,SE,130,18.4,18.4,82,0.00,CLR,,0.00,WeatherDisplay:10.37,2013-05-17 01:56:00,
2013-05-16 21:01:00,79.8,73.8,29.72,ESE,120,11.5,11.5,82,0.00,CLR,,0.00,WeatherDisplay:10.37,2013-05-17 02:01:00,
2013-05-16 21:06:00,79.6,74.0,29.73,SE,127,9.2,9.2,83,0.00,CLR,,0.00,WeatherDisplay:10.37,2013-05-17 02:06:00,
2013-05-16 21:11:00,79.4,73.8,29.73,SE,128,11.5,11.5,83,0.00,CLR,,0.00,WeatherDisplay:10.37,2013-05-17 02:11:00,
2013-05-16 21:16:00,79.3,74.0,29.73,SE,127,12.7,12.7,84,0.00,CLR,,0.00,WeatherDisplay:10.37,2013-05-17 02:16:00,
2013-05-16 21:21:00,79.0,73.7,29.73,ESE,112,11.5,11.5,84,0.00,CLR,,0.00,WeatherDisplay:10.37,2013-05-17 02:21:00,
2013-05-16 21:26:00,78.8,73.6,29.73,SE,128,11.5,11.5,84,0.00,CLR,,0.00,WeatherDisplay:10.37,2013-05-17 02:26:00,
2013-05-16 21:31:00,78.7,73.8,29.73,SE,128,9.2,9.2,85,0.00,CLR,,0.00,WeatherDisplay:10.37,2013-05-17 02:31:00,
2013-05-16 21:36:00,78.5,73.6,29.74,SE,128,11.5,11.5,85,0.00,CLR,,0.00,WeatherDisplay:10.37,2013-05-17 02:36:00,
2013-05-16 21:41:00,78.3,73.4,29.74,SSE,149,8.1,8.1,85,0.00,CLR,,0.00,WeatherDisplay:10.37,2013-05-17 02:41:00,
2013-05-16 21:46:00,78.2,73.7,29.74,SE,131,11.5,11.5,86,0.00,CLR,,0.00,WeatherDisplay:10.37,2013-05-17 02:46:00,
2013-05-16 21:51:00,78.0,73.5,29.74,SSE,162,11.5,11.5,86,0.00,CLR,,0.00,WeatherDisplay:10.37,2013-05-17 02:51:00,
2013-05-16 21:56:00,77.9,73.4,29.74,SE,136,9.2,9.2,86,0.00,CLR,,0.00,WeatherDisplay:10.37,2013-05-17 02:56:00,
2013-05-16 22:01:00,77.7,73.2,29.74,SE,143,10.4,10.4,86,0.00,CLR,,0.00,WeatherDisplay:10.37,2013-05-17 03:01:00,
2013-05-16 22:06:00,77.6,73.4,29.75,ESE,117,11.5,11.5,87,0.00,CLR,,0.00,WeatherDisplay:10.37,2013-05-17 03:06:00,
2013-05-16 22:11:00,77.5,73.3,29.75,SE,138,11.0,11.0,87,0.00,CLR,,0.00,WeatherDisplay:10.37,2013-05-17 03:11:00,
2013-05-16 22:16:00,77.4,73.2,29.75,SE,131,12.7,12.7,87,0.00,CLR,,0.00,WeatherDisplay:10.37,2013-05-17 03:16:00,
2013-05-16 22:21:00,77.3,73.1,29.75,ESE,122,16.1,16.1,87,0.00,CLR,,0.00,WeatherDisplay:10.37,2013-05-17 03:21:00,
2013-05-16 22:26:00,77.2,73.0,29.75,ESE,106,11.5,11.5,87,0.00,CLR,,0.00,WeatherDisplay:10.37,2013-05-17 03:26:00,
2013-05-16 22:31:00,77.1,73.3,29.75,SSE,150,8.0,8.0,88,0.00,CLR,,0.00,WeatherDisplay:10.37,2013-05-17 03:31:00,
2013-05-16 22:36:00,77.0,73.2,29.76,ESE,114,10.4,10.4,88,0.00,CLR,,0.00,WeatherDisplay:10.37,2013-05-17 03:36:00,
2013-05-16 22:41:00,77.0,73.2,29.76,South,172,8.1,8.1,88,0.00,CLR,,0.00,WeatherDisplay:10.37,2013-05-17 03:41:00,
2013-05-16 22:46:00,76.9,73.1,29.76,ESE,119,11.5,11.5,88,0.00,CLR,,0.00,WeatherDisplay:10.37,2013-05-17 03:46:00,
2013-05-16 22:51:00,76.8,73.0,29.76,ESE,114,11.5,11.5,88,0.00,CLR,,0.00,WeatherDisplay:10.37,2013-05-17 03:51:00,
2013-05-16 22:56:00,76.7,73.2,29.76,SE,134,13.0,13.0,89,0.00,CLR,,0.00,WeatherDisplay:10.37,2013-05-17 03:56:00,
2013-05-16 23:01:00,76.7,73.2,29.76,ENE,58,9.2,9.2,89,0.00,CLR,,0.00,WeatherDisplay:10.37,2013-05-17 04:01:00,
2013-05-16 23:06:00,76.6,73.1,29.76,ESE,109,16.1,16.1,89,0.00,CLR,,0.00,WeatherDisplay:10.37,2013-05-17 04:06:00,
2013-05-16 23:11:00,76.5,73.0,29.76,SE,124,10.4,10.4,89,0.00,CLR,,0.00,WeatherDisplay:10.37,2013-05-17 04:11:00,
2013-05-16 23:16:00,76.5,73.0,29.76,SE,131,8.1,8.1,89,0.00,CLR,,0.00,WeatherDisplay:10.37,2013-05-17 04:16:00,
2013-05-16 23:21:00,76.4,72.9,29.76,SE,146,10.4,10.4,89,0.00,CLR,,0.00,WeatherDisplay:10.37,2013-05-17 04:21:00,
2013-05-16 23:26:00,76.4,72.9,29.76,SE,146,11.5,11.5,89,0.00,CLR,,0.00,WeatherDisplay:10.37,2013-05-17 04:26:00,
2013-05-16 23:31:00,76.3,72.8,29.76,SSE,162,12.7,12.7,89,0.00,CLR,,0.00,WeatherDisplay:10.37,2013-05-17 04:31:00,
2013-05-16 23:36:00,76.3,72.8,29.76,SSE,159,10.4,10.4,89,0.00,CLR,,0.00,WeatherDisplay:10.37,2013-05-17 04:36:00,
2013-05-16 23:41:00,76.3,72.8,29.76,SE,126,6.9,6.9,89,0.00,CLR,,0.00,WeatherDisplay:10.37,2013-05-17 04:41:00,
2013-05-16 23:46:00,76.2,72.7,29.77,SE,127,11.5,11.5,89,0.00,CLR,,0.00,WeatherDisplay:10.37,2013-05-17 04:46:00,
2013-05-16 23:51:00,76.3,72.8,29.77,SE,144,12.7,12.7,89,0.00,CLR,,0.00,WeatherDisplay:10.37,2013-05-17 04:51:00,
2013-05-16 23:56:00,76.2,72.7,29.76,SE,139,9.2,9.2,89,0.00,CLR,,0.00,WeatherDisplay:10.37,2013-05-17 04:56:00,